Meridian NAS, MS

11:42 AM CST on December 25, 2014 (GMT -0600)
Golden Triangle Regional | Change Station
CLOSE
Current Station
Airport
Location: Golden Triangle,
Elevation: 262 ft
Nearby Weather Stations

Elev 262 ft 33.45 °N, 88.59 °W | Updated 52 minutes ago

Clear
Clear
46 °F
Feels Like 43 °F
N
7
Wind Variable Wind from SSW

Today
High -- | Low -- °F
--% Chance of Precip.
Yesterday
High -- | Low -- °F
Precip. -- in
6:53 AM 4:54 PM
Waxing Crescent, 18% visible
Pressure 30.25 in
Visibility 10.0 miles
Clouds Scattered Clouds 5000 ft
Windchill 43 °F
Dew Point 36 °F
Humidity 66%
Rainfall 0.00 in
Snow Depth Not available.
UV 3 out of 12
Pollen .40 out of 12
Air Quality Not available.
Flu Activity Not available.
METAR KGTR 251650Z 21006KT 10SM SCT050 08/02 A3025

More Conditions Fewer Conditions

Pressure 30.25 in
Visibility 10.0 miles
Clouds Scattered Clouds 5000 ft
Windchill 43 °F
Dew Point 36 °F
Humidity 66%
Rainfall 0.00 in
Snow Depth Not available.
UV 3 out of 12
Pollen .40 out of 12
Air Quality Not available.
Flu Activity Not available.
METAR KGTR 251650Z 21006KT 10SM SCT050 08/02 A3025

More Conditions Fewer Conditions

10-Day Weather Forecast

Almanac

Astronomy

Dec. 25, 2014 Rise Set
Actual Time
Civil Twilight
Nautical Twilight
Astronomical Twilight
Moon
Length of Visible Light
Length of Day
Tomorrow will be .
, % of the Moon is Illuminated

Today's Extremes

State Highs State Lows

Community

WunderPhotos

Upload Photos

1,780,351 photos uploaded!

WunderBlogs® & News

Nearby

Air Quality

  Air Quality AQ Index Pollutant
Not available.

Snow Depth

Station Depth Elevation

Earthquake Activity

City Distance Mag. Time & Date
Minimum magnitude displayed is 2.5.

Coastal Water Temperatures

Place Temperature

Nearby Weather Stations